createdAt,value
2018-05-12T00:00:51.374Z,1006.76
2018-05-12T00:01:51.428Z,1006.76
2018-05-12T00:02:51.489Z,1006.76
2018-05-12T00:03:51.548Z,1006.74
2018-05-12T00:04:51.607Z,1006.73
2018-05-12T00:05:51.700Z,1006.74
2018-05-12T00:06:51.726Z,1006.72
2018-05-12T00:07:51.786Z,1006.71
2018-05-12T00:08:51.845Z,1006.73
2018-05-12T00:09:51.903Z,1006.77
2018-05-12T00:10:51.963Z,1006.75
2018-05-12T00:11:52.021Z,1006.76
2018-05-12T00:12:52.081Z,1006.75
2018-05-12T00:13:52.139Z,1006.74
2018-05-12T00:14:52.283Z,1006.76
2018-05-12T00:15:52.258Z,1006.77
2018-05-12T00:16:52.317Z,1006.80
2018-05-12T00:17:52.377Z,1006.74
2018-05-12T00:18:52.436Z,1006.75
2018-05-12T00:19:52.495Z,1006.74
2018-05-12T00:20:52.554Z,1006.75
2018-05-12T00:21:52.612Z,1006.77
2018-05-12T00:22:52.671Z,1006.76
2018-05-12T00:23:52.733Z,1006.74
2018-05-12T00:24:52.790Z,1006.72
2018-05-12T00:25:52.848Z,1006.73
2018-05-12T00:26:52.908Z,1006.70
2018-05-12T00:27:52.967Z,1006.75
2018-05-12T00:28:53.026Z,1006.73
2018-05-12T00:29:53.085Z,1006.73
2018-05-12T00:30:53.145Z,1006.70
2018-05-12T00:31:53.202Z,1006.71
2018-05-12T00:32:53.261Z,1006.71
2018-05-12T00:33:53.324Z,1006.66
2018-05-12T00:34:53.378Z,1006.68
2018-05-12T00:35:53.441Z,1006.67
2018-05-12T00:36:53.498Z,1006.71
2018-05-12T00:37:53.556Z,1006.70
2018-05-12T00:38:53.614Z,1006.68
2018-05-12T00:39:53.673Z,1006.70
2018-05-12T00:40:53.732Z,1006.71
2018-05-12T00:41:53.791Z,1006.74
2018-05-12T00:42:53.897Z,1006.71
2018-05-12T00:43:53.909Z,1006.69
2018-05-12T00:44:53.968Z,1006.67
2018-05-12T00:45:54.026Z,1006.71
2018-05-12T00:46:54.337Z,1006.73
2018-05-12T00:47:54.144Z,1006.71
2018-05-12T00:48:54.205Z,1006.73
2018-05-12T00:49:54.263Z,1006.67
2018-05-12T00:50:54.323Z,1006.71
2018-05-12T00:51:54.381Z,1006.65
2018-05-12T00:52:54.440Z,1006.69
2018-05-12T00:53:54.500Z,1006.68
2018-05-12T00:54:54.560Z,1006.67
2018-05-12T00:55:54.616Z,1006.68
2018-05-12T00:56:54.677Z,1006.63
2018-05-12T00:57:54.733Z,1006.66
2018-05-12T00:58:54.792Z,1006.67
2018-05-12T00:59:54.852Z,1006.67
2018-05-12T01:00:54.916Z,1006.61
2018-05-12T01:01:54.968Z,1006.64
2018-05-12T01:02:55.027Z,1006.61
2018-05-12T01:03:55.087Z,1006.68
2018-05-12T01:04:55.148Z,1006.67
2018-05-12T01:05:55.206Z,1006.65
2018-05-12T01:06:55.262Z,1006.63
2018-05-12T01:07:55.322Z,1006.63
2018-05-12T01:08:55.380Z,1006.62
2018-05-12T01:09:55.439Z,1006.59
2018-05-12T01:10:55.502Z,1006.58
2018-05-12T01:11:55.557Z,1006.53
2018-05-12T01:12:55.615Z,1006.57
2018-05-12T01:13:55.672Z,1006.55
2018-05-12T01:14:55.731Z,1006.58
2018-05-12T01:15:55.794Z,1006.63
2018-05-12T01:16:55.853Z,1006.64
2018-05-12T01:17:55.909Z,1006.63
2018-05-12T01:18:55.967Z,1006.62
2018-05-12T01:19:56.031Z,1006.61
2018-05-12T01:20:56.085Z,1006.58
2018-05-12T01:21:56.143Z,1006.57
2018-05-12T01:22:56.202Z,1006.58
2018-05-12T01:23:56.260Z,1006.54
2018-05-12T01:24:56.323Z,1006.54
2018-05-12T01:25:56.377Z,1006.54
2018-05-12T01:26:56.436Z,1006.52
2018-05-12T01:27:56.497Z,1006.55
2018-05-12T01:28:56.556Z,1006.49
2018-05-12T01:29:56.612Z,1006.47
2018-05-12T01:30:56.672Z,1006.49
2018-05-12T01:31:56.731Z,1006.49
2018-05-12T01:32:56.794Z,1006.44
2018-05-12T01:33:56.847Z,1006.47
2018-05-12T01:34:56.904Z,1006.47
2018-05-12T01:35:56.965Z,1006.55
2018-05-12T01:36:57.025Z,1006.49
2018-05-12T01:37:57.089Z,1006.50
2018-05-12T01:38:57.140Z,1006.55
2018-05-12T01:39:57.199Z,1006.55
2018-05-12T01:40:57.260Z,1006.57
2018-05-12T01:41:57.314Z,1006.55
2018-05-12T01:42:57.375Z,1006.55
2018-05-12T01:43:57.431Z,1006.58
2018-05-12T01:44:57.491Z,1006.55
2018-05-12T01:45:57.548Z,1006.59
2018-05-12T01:46:57.607Z,1006.61
2018-05-12T01:47:57.665Z,1006.57
2018-05-12T01:48:57.725Z,1006.62
2018-05-12T01:49:57.783Z,1006.59
2018-05-12T01:50:57.842Z,1006.60
2018-05-12T01:51:57.902Z,1006.55
2018-05-12T01:52:57.963Z,1006.55
2018-05-12T01:53:58.015Z,1006.51
2018-05-12T01:54:58.077Z,1006.58
2018-05-12T01:55:58.133Z,1006.59
2018-05-12T01:56:58.193Z,1006.60
2018-05-12T01:57:58.250Z,1006.60
2018-05-12T01:58:58.309Z,1006.57
2018-05-12T01:59:58.366Z,1006.61
2018-05-12T02:00:58.429Z,1006.57
2018-05-12T02:01:58.488Z,1006.58
2018-05-12T02:02:58.543Z,1006.54
2018-05-12T02:03:58.601Z,1006.56
2018-05-12T02:04:58.658Z,1006.52
2018-05-12T02:05:58.717Z,1006.52
2018-05-12T02:06:59.031Z,1006.55
2018-05-12T02:07:58.833Z,1006.55
2018-05-12T02:08:58.893Z,1006.50
2018-05-12T02:09:58.955Z,1006.53
2018-05-12T02:10:59.008Z,1006.52
2018-05-12T02:11:59.067Z,1006.49
2018-05-12T02:12:59.127Z,1006.50
2018-05-12T02:13:59.184Z,1006.47
2018-05-12T02:14:59.244Z,1006.53
2018-05-12T02:15:59.301Z,1006.49
2018-05-12T02:16:59.358Z,1006.51
2018-05-12T02:17:59.416Z,1006.48
2018-05-12T02:18:59.476Z,1006.47
2018-05-12T02:19:59.533Z,1006.44
2018-05-12T02:20:59.591Z,1006.46
2018-05-12T02:21:59.650Z,1006.49
2018-05-12T02:22:59.707Z,1006.48
2018-05-12T02:23:59.767Z,1006.45
2018-05-12T02:24:59.825Z,1006.47
2018-05-12T02:25:59.883Z,1006.47
2018-05-12T02:26:59.942Z,1006.46
2018-05-12T02:27:59.999Z,1006.46
2018-05-12T02:29:00.059Z,1006.52
2018-05-12T02:30:00.116Z,1006.52
2018-05-12T02:31:00.175Z,1006.48
2018-05-12T02:32:00.234Z,1006.51
2018-05-12T02:33:00.291Z,1006.46
2018-05-12T02:34:00.353Z,1006.49
2018-05-12T02:35:00.657Z,1006.49
2018-05-12T02:36:00.465Z,1006.46
2018-05-12T02:37:00.525Z,1006.48
2018-05-12T02:38:00.582Z,1006.51
2018-05-12T02:39:00.640Z,1006.48
2018-05-12T02:40:00.701Z,1006.45
2018-05-12T02:41:00.762Z,1006.46
2018-05-12T02:42:00.813Z,1006.46
2018-05-12T02:43:00.874Z,1006.45
2018-05-12T02:44:00.931Z,1006.44
2018-05-12T02:45:01.017Z,1006.43
2018-05-12T02:46:01.049Z,1006.43
2018-05-12T02:47:01.108Z,1006.41
2018-05-12T02:48:01.165Z,1006.47
2018-05-12T02:49:01.226Z,1006.41
2018-05-12T02:50:01.277Z,1006.44
2018-05-12T02:51:01.337Z,1006.46
2018-05-12T02:52:01.397Z,1006.45
2018-05-12T02:53:01.454Z,1006.45
2018-05-12T02:54:01.509Z,1006.42
2018-05-12T02:55:01.568Z,1006.47
2018-05-12T02:56:01.630Z,1006.47
2018-05-12T02:57:01.685Z,1006.46
2018-05-12T02:58:01.746Z,1006.46
2018-05-12T02:59:01.801Z,1006.48
2018-05-12T03:00:01.860Z,1006.50
2018-05-12T03:01:01.918Z,1006.50
2018-05-12T03:02:01.977Z,1006.50
2018-05-12T03:03:02.035Z,1006.48
2018-05-12T03:04:02.091Z,1006.50
2018-05-12T03:05:02.154Z,1006.50
2018-05-12T03:06:02.211Z,1006.48
2018-05-12T03:07:02.266Z,1006.46
2018-05-12T03:08:02.324Z,1006.46
2018-05-12T03:09:02.382Z,1006.47
2018-05-12T03:10:02.441Z,1006.48
2018-05-12T03:11:02.498Z,1006.47
2018-05-12T03:12:02.555Z,1006.45
2018-05-12T03:13:02.615Z,1006.47
2018-05-12T03:14:02.671Z,1006.47
2018-05-12T03:15:02.733Z,1006.49
2018-05-12T03:16:02.787Z,1006.48
2018-05-12T03:17:02.846Z,1006.49
2018-05-12T03:18:02.987Z,1006.47
2018-05-12T03:19:02.962Z,1006.45
2018-05-12T03:20:03.020Z,1006.43
2018-05-12T03:21:03.077Z,1006.46
2018-05-12T03:22:03.135Z,1006.40
2018-05-12T03:23:03.193Z,1006.41
2018-05-12T03:24:03.252Z,1006.39
2018-05-12T03:25:03.312Z,1006.43
2018-05-12T03:26:03.367Z,1006.38
2018-05-12T03:27:03.425Z,1006.43
2018-05-12T03:28:03.482Z,1006.42
2018-05-12T03:29:03.542Z,1006.47
2018-05-12T03:30:03.599Z,1006.44
2018-05-12T03:31:03.658Z,1006.49
2018-05-12T03:32:03.715Z,1006.48
2018-05-12T03:33:03.774Z,1006.50
2018-05-12T03:34:03.830Z,1006.48
2018-05-12T03:35:03.889Z,1006.48
2018-05-12T03:36:03.947Z,1006.46
2018-05-12T03:37:04.004Z,1006.53
2018-05-12T03:38:04.064Z,1006.52
2018-05-12T03:39:04.120Z,1006.49
2018-05-12T03:40:04.179Z,1006.51
2018-05-12T03:41:04.237Z,1006.52
2018-05-12T03:42:04.294Z,1006.55
2018-05-12T03:43:04.352Z,1006.52
2018-05-12T03:44:04.660Z,1006.51
2018-05-12T03:45:04.468Z,1006.50
2018-05-12T03:46:04.525Z,1006.48
2018-05-12T03:47:04.583Z,1006.46
2018-05-12T03:48:04.641Z,1006.47
2018-05-12T03:49:04.698Z,1006.49
2018-05-12T03:50:04.757Z,1006.48
2018-05-12T03:51:04.814Z,1006.50
2018-05-12T03:52:04.872Z,1006.54
2018-05-12T03:53:04.930Z,1006.53
2018-05-12T03:54:04.988Z,1006.53
2018-05-12T03:55:05.047Z,1006.57
2018-05-12T03:56:05.104Z,1006.58
2018-05-12T03:57:05.161Z,1006.62
2018-05-12T03:58:05.219Z,1006.59
2018-05-12T03:59:05.276Z,1006.60
2018-05-12T04:00:05.464Z,1006.60
2018-05-12T04:01:05.393Z,1006.63
2018-05-12T04:02:05.453Z,1006.64
2018-05-12T04:03:05.512Z,1006.63
2018-05-12T04:04:05.567Z,1006.62
2018-05-12T04:05:05.624Z,1006.63
2018-05-12T04:06:05.682Z,1006.63
2018-05-12T04:07:05.739Z,1006.63
2018-05-12T04:08:05.798Z,1006.57
2018-05-12T04:09:05.856Z,1006.59
2018-05-12T04:10:05.914Z,1006.63
2018-05-12T04:11:05.970Z,1006.67
2018-05-12T04:12:06.029Z,1006.67
2018-05-12T04:13:06.088Z,1006.69
2018-05-12T04:14:06.148Z,1006.70
2018-05-12T04:15:06.301Z,1006.74
2018-05-12T04:16:06.260Z,1006.72
2018-05-12T04:17:06.319Z,1006.75
2018-05-12T04:18:06.375Z,1006.73
2018-05-12T04:19:06.433Z,1006.73
2018-05-12T04:20:06.493Z,1006.76
2018-05-12T04:21:06.575Z,1006.78
2018-05-12T04:22:06.606Z,1006.78
2018-05-12T04:23:06.664Z,1006.77
2018-05-12T04:24:06.723Z,1006.78
2018-05-12T04:25:06.785Z,1006.77
2018-05-12T04:26:06.838Z,1006.76
2018-05-12T04:27:06.896Z,1006.78
2018-05-12T04:28:06.955Z,1006.77
2018-05-12T04:29:07.014Z,1006.76
2018-05-12T04:30:07.071Z,1006.75
2018-05-12T04:31:07.129Z,1006.72
2018-05-12T04:32:07.187Z,1006.71
2018-05-12T04:33:07.245Z,1006.73
2018-05-12T04:34:07.302Z,1006.73
2018-05-12T04:35:07.360Z,1006.72
2018-05-12T04:36:07.424Z,1006.78
2018-05-12T04:37:07.478Z,1006.74
2018-05-12T04:38:07.535Z,1006.75
2018-05-12T04:39:07.597Z,1006.73
2018-05-12T04:40:07.651Z,1006.74
2018-05-12T04:41:07.711Z,1006.73
2018-05-12T04:42:07.766Z,1006.74
2018-05-12T04:43:07.826Z,1006.74
2018-05-12T04:44:07.885Z,1006.71
2018-05-12T04:45:07.941Z,1006.72
2018-05-12T04:46:07.997Z,1006.70
2018-05-12T04:47:08.056Z,1006.73
2018-05-12T04:48:08.114Z,1006.71
2018-05-12T04:49:08.173Z,1006.71
2018-05-12T04:50:08.232Z,1006.70
2018-05-12T04:51:08.289Z,1006.69
2018-05-12T04:52:08.348Z,1006.69
2018-05-12T04:53:08.404Z,1006.72
2018-05-12T04:54:08.463Z,1006.71
2018-05-12T04:55:08.967Z,1006.72
2018-05-12T04:56:08.579Z,1006.69
2018-05-12T04:57:08.637Z,1006.67
2018-05-12T04:58:08.695Z,1006.70
2018-05-12T04:59:08.754Z,1006.70
2018-05-12T05:00:08.810Z,1006.73
2018-05-12T05:01:08.869Z,1006.71
2018-05-12T05:02:08.927Z,1006.70
2018-05-12T05:03:08.985Z,1006.72
2018-05-12T05:04:09.043Z,1006.69
2018-05-12T05:05:09.101Z,1006.72
2018-05-12T05:06:09.160Z,1006.71
2018-05-12T05:07:09.217Z,1006.65
2018-05-12T05:08:09.359Z,1006.67
2018-05-12T05:09:09.333Z,1006.68
2018-05-12T05:10:09.391Z,1006.69
2018-05-12T05:11:09.450Z,1006.71
2018-05-12T05:12:09.509Z,1006.68
2018-05-12T05:13:09.569Z,1006.69
2018-05-12T05:14:09.624Z,1006.69
2018-05-12T05:15:09.789Z,1006.71
2018-05-12T05:16:09.740Z,1006.74
2018-05-12T05:17:09.800Z,1006.74
2018-05-12T05:18:09.858Z,1006.76
2018-05-12T05:19:09.914Z,1006.77
2018-05-12T05:20:10.517Z,1006.76
2018-05-12T05:21:10.084Z,1006.77
2018-05-12T05:22:10.091Z,1006.76
2018-05-12T05:23:10.872Z,1006.78
2018-05-12T05:24:10.206Z,1006.75
2018-05-12T05:25:10.268Z,1006.76
2018-05-12T05:26:10.323Z,1006.78
2018-05-12T05:27:10.382Z,1006.79
2018-05-12T05:28:10.439Z,1006.78
2018-05-12T05:29:10.499Z,1006.81
2018-05-12T05:30:10.555Z,1006.77
2018-05-12T05:31:10.614Z,1006.78
2018-05-12T05:32:10.673Z,1006.76
2018-05-12T05:33:10.732Z,1006.80
2018-05-12T05:34:10.791Z,1006.80
2018-05-12T05:35:10.928Z,1006.78
2018-05-12T05:36:10.913Z,1006.79
2018-05-12T05:37:10.968Z,1006.75
2018-05-12T05:38:11.175Z,1006.79
2018-05-12T05:39:11.088Z,1006.78
2018-05-12T05:40:11.144Z,1006.78
2018-05-12T05:41:11.202Z,1006.79
2018-05-12T05:42:11.262Z,1006.79
2018-05-12T05:43:11.319Z,1006.80
2018-05-12T05:44:11.379Z,1006.79
2018-05-12T05:45:11.439Z,1006.87
2018-05-12T05:46:11.496Z,1006.84
2018-05-12T05:47:11.563Z,1006.80
2018-05-12T05:48:11.616Z,1006.81
2018-05-12T05:49:11.673Z,1006.81
2018-05-12T05:50:11.740Z,1006.84
2018-05-12T05:51:11.797Z,1006.82
2018-05-12T05:52:11.852Z,1006.81
2018-05-12T05:53:11.915Z,1006.81
2018-05-12T05:54:11.970Z,1006.77
2018-05-12T05:55:12.278Z,1006.79
2018-05-12T05:56:12.088Z,1006.79
2018-05-12T05:57:12.148Z,1006.78
2018-05-12T05:58:12.206Z,1006.81
2018-05-12T05:59:12.267Z,1006.80
2018-05-12T06:00:12.330Z,1006.80
2018-05-12T06:01:12.385Z,1006.76
2018-05-12T06:02:12.444Z,1006.76
2018-05-12T06:03:12.504Z,1006.75
2018-05-12T06:04:12.565Z,1006.75
2018-05-12T06:05:12.623Z,1006.75
2018-05-12T06:06:12.684Z,1006.76
2018-05-12T06:07:12.835Z,1006.78
2018-05-12T06:08:12.804Z,1006.78
2018-05-12T06:09:12.863Z,1006.78
2018-05-12T06:10:12.922Z,1006.74
2018-05-12T06:11:12.981Z,1006.73
2018-05-12T06:12:13.042Z,1006.75
2018-05-12T06:13:13.102Z,1006.78
2018-05-12T06:14:13.162Z,1006.79
2018-05-12T06:15:13.221Z,1006.76
2018-05-12T06:16:13.281Z,1006.75
2018-05-12T06:17:13.342Z,1006.74
2018-05-12T06:18:13.419Z,1006.76
2018-05-12T06:19:13.460Z,1006.75
2018-05-12T06:20:13.521Z,1006.70
2018-05-12T06:21:13.582Z,1006.68
2018-05-12T06:22:13.641Z,1006.68
2018-05-12T06:23:13.699Z,1006.69
2018-05-12T06:24:13.760Z,1006.68
2018-05-12T06:25:13.821Z,1006.70
2018-05-12T06:26:13.879Z,1006.68
2018-05-12T06:27:13.940Z,1006.70
2018-05-12T06:28:14.001Z,1006.64
2018-05-12T06:29:14.595Z,1006.67
2018-05-12T06:30:14.125Z,1006.70
2018-05-12T06:31:14.186Z,1006.68
2018-05-12T06:32:14.242Z,1006.70
2018-05-12T06:33:14.316Z,1006.69
2018-05-12T06:34:14.361Z,1006.67
2018-05-12T06:35:14.423Z,1006.69
2018-05-12T06:36:14.483Z,1006.68
2018-05-12T06:37:14.544Z,1006.72
2018-05-12T06:38:14.603Z,1006.67
2018-05-12T06:39:14.663Z,1006.71
2018-05-12T06:40:14.728Z,1006.71
2018-05-12T06:41:14.787Z,1006.71
2018-05-12T06:42:15.095Z,1006.68
2018-05-12T06:43:14.906Z,1006.68
2018-05-12T06:44:14.965Z,1006.64
2018-05-12T06:45:15.027Z,1006.60
2018-05-12T06:46:15.086Z,1006.60
2018-05-12T06:47:15.146Z,1006.62
2018-05-12T06:48:15.210Z,1006.60
2018-05-12T06:49:15.352Z,1006.61
2018-05-12T06:50:15.329Z,1006.59
2018-05-12T06:51:15.388Z,1006.58
2018-05-12T06:52:15.449Z,1006.58
2018-05-12T06:53:15.511Z,1006.60
2018-05-12T06:54:15.571Z,1006.61
2018-05-12T06:55:15.631Z,1006.58
2018-05-12T06:56:15.691Z,1006.60
2018-05-12T06:57:15.752Z,1006.57
2018-05-12T06:58:15.812Z,1006.54
2018-05-12T06:59:15.874Z,1006.56
2018-05-12T07:00:15.935Z,1006.58
2018-05-12T07:01:15.999Z,1006.56
2018-05-12T07:02:16.057Z,1006.56
2018-05-12T07:03:16.119Z,1006.56
2018-05-12T07:04:16.184Z,1006.57
2018-05-12T07:05:16.240Z,1006.57
2018-05-12T07:06:16.300Z,1006.58
2018-05-12T07:07:16.362Z,1006.55
2018-05-12T07:08:16.424Z,1006.55
2018-05-12T07:09:16.483Z,1006.55
2018-05-12T07:10:16.544Z,1006.53
2018-05-12T07:11:16.606Z,1006.53
2018-05-12T07:12:16.692Z,1006.56
2018-05-12T07:13:16.728Z,1006.53
2018-05-12T07:14:17.040Z,1006.57
2018-05-12T07:15:16.851Z,1006.56
2018-05-12T07:16:16.914Z,1006.55
2018-05-12T07:17:16.973Z,1006.55
2018-05-12T07:18:17.034Z,1006.54
2018-05-12T07:19:17.095Z,1006.56
2018-05-12T07:20:17.156Z,1006.57
2018-05-12T07:21:17.222Z,1006.56
2018-05-12T07:22:17.592Z,1006.57
2018-05-12T07:23:17.937Z,1006.56
2018-05-12T07:24:17.940Z,1006.56
2018-05-12T07:25:17.775Z,1006.54
2018-05-12T07:26:17.524Z,1006.54
2018-05-12T07:27:17.587Z,1006.59
2018-05-12T07:28:17.706Z,1006.56
2018-05-12T07:29:17.710Z,1006.58
2018-05-12T07:30:17.771Z,1006.57
2018-05-12T07:31:17.834Z,1006.57
2018-05-12T07:32:17.896Z,1006.59
2018-05-12T07:33:17.957Z,1006.58
2018-05-12T07:34:18.019Z,1006.55
2018-05-12T07:35:18.083Z,1006.55
2018-05-12T07:36:18.142Z,1006.57
2018-05-12T07:37:18.203Z,1006.49
2018-05-12T07:38:18.267Z,1006.50
2018-05-12T07:39:18.332Z,1006.47
2018-05-12T07:40:18.391Z,1006.48
2018-05-12T07:41:18.452Z,1006.49
2018-05-12T07:42:18.513Z,1006.49
2018-05-12T07:43:18.830Z,1006.47
2018-05-12T07:44:18.637Z,1006.49
2018-05-12T07:45:18.701Z,1006.49
2018-05-12T07:46:18.761Z,1006.51
2018-05-12T07:47:18.823Z,1006.50
2018-05-12T07:48:18.886Z,1006.51
2018-05-12T07:49:18.949Z,1006.51
2018-05-12T07:50:19.013Z,1006.52
2018-05-12T07:51:19.072Z,1006.51
2018-05-12T07:52:19.136Z,1006.49
2018-05-12T07:53:19.206Z,1006.45
2018-05-12T07:54:19.259Z,1006.45
2018-05-12T07:55:19.321Z,1006.44
2018-05-12T07:56:19.384Z,1006.42
2018-05-12T07:57:19.448Z,1006.38
2018-05-12T07:58:19.506Z,1006.39
2018-05-12T07:59:19.569Z,1006.40
2018-05-12T08:00:19.633Z,1006.41
2018-05-12T08:01:19.694Z,1006.38
2018-05-12T08:02:19.757Z,1006.37
2018-05-12T08:03:19.871Z,1006.37
2018-05-12T08:04:19.883Z,1006.34
2018-05-12T08:05:19.947Z,1006.33
2018-05-12T08:06:20.445Z,1006.32
2018-05-12T08:07:20.071Z,1006.28
2018-05-12T08:08:20.135Z,1006.29
2018-05-12T08:09:20.197Z,1006.28
2018-05-12T08:10:20.264Z,1006.27
2018-05-12T08:11:20.472Z,1006.27
2018-05-12T08:12:20.384Z,1006.26
2018-05-12T08:13:20.449Z,1006.23
2018-05-12T08:14:20.513Z,1006.25
2018-05-12T08:15:20.579Z,1006.24
2018-05-12T08:16:20.638Z,1006.26
2018-05-12T08:17:20.703Z,1006.23
2018-05-12T08:18:20.767Z,1006.24
2018-05-12T08:19:20.829Z,1006.23
2018-05-12T08:20:20.892Z,1006.18
2018-05-12T08:21:20.958Z,1006.19
2018-05-12T08:22:21.018Z,1006.18
2018-05-12T08:23:21.086Z,1006.16
2018-05-12T08:24:21.146Z,1006.16
2018-05-12T08:25:21.214Z,1006.14
2018-05-12T08:26:21.273Z,1006.12
2018-05-12T08:27:21.338Z,1006.09
2018-05-12T08:28:21.401Z,1006.06
2018-05-12T08:29:21.466Z,1006.03
2018-05-12T08:30:21.528Z,1006.01
2018-05-12T08:31:21.592Z,1005.99
2018-05-12T08:32:21.660Z,1005.97
2018-05-12T08:33:21.722Z,1005.96
2018-05-12T08:34:21.786Z,1005.96
2018-05-12T08:35:21.853Z,1005.95
2018-05-12T08:36:21.915Z,1005.96
2018-05-12T08:37:21.979Z,1005.97
2018-05-12T08:38:22.043Z,1005.93
2018-05-12T08:39:22.109Z,1005.97
2018-05-12T08:40:22.217Z,1005.94
2018-05-12T08:41:22.237Z,1005.95
2018-05-12T08:42:22.302Z,1005.90
2018-05-12T08:43:22.367Z,1005.87
2018-05-12T08:44:22.432Z,1005.89
2018-05-12T08:45:22.497Z,1005.88
2018-05-12T08:46:22.560Z,1005.85
2018-05-12T08:47:22.626Z,1005.85
2018-05-12T08:48:22.778Z,1005.86
2018-05-12T08:49:22.757Z,1005.81
2018-05-12T08:50:22.821Z,1005.82
2018-05-12T08:51:22.889Z,1005.83
2018-05-12T08:52:22.955Z,1005.80
2018-05-12T08:53:23.019Z,1005.84
2018-05-12T08:54:23.082Z,1005.77
2018-05-12T08:55:23.456Z,1005.80
2018-05-12T08:56:23.214Z,1005.81
2018-05-12T08:57:23.279Z,1005.76
2018-05-12T08:58:23.343Z,1005.75
2018-05-12T08:59:23.409Z,1005.75
2018-05-12T09:00:23.475Z,1005.71
2018-05-12T09:01:23.541Z,1005.68
2018-05-12T09:02:23.606Z,1005.67
2018-05-12T09:03:23.672Z,1005.69
2018-05-12T09:04:23.738Z,1005.68
2018-05-12T09:05:23.804Z,1005.67
2018-05-12T09:06:23.869Z,1005.65
2018-05-12T09:07:24.244Z,1005.64
2018-05-12T09:08:24.002Z,1005.65
2018-05-12T09:09:24.069Z,1005.60
2018-05-12T09:10:24.132Z,1005.65
2018-05-12T09:11:24.199Z,1005.62
2018-05-12T09:12:24.265Z,1005.63
2018-05-12T09:13:24.333Z,1005.54
2018-05-12T09:14:24.400Z,1005.59
2018-05-12T09:15:24.465Z,1005.59
2018-05-12T09:16:24.532Z,1005.56
2018-05-12T09:17:24.598Z,1005.54
2018-05-12T09:18:24.664Z,1005.53
2018-05-12T09:19:24.740Z,1005.51
2018-05-12T09:20:24.798Z,1005.52
2018-05-12T09:21:24.864Z,1005.48
2018-05-12T09:22:24.934Z,1005.46
2018-05-12T09:23:24.997Z,1005.47
2018-05-12T09:24:25.065Z,1005.48
2018-05-12T09:25:25.132Z,1005.48
2018-05-12T09:26:25.196Z,1005.51
2018-05-12T09:27:25.263Z,1005.40
2018-05-12T09:28:25.330Z,1005.41
2018-05-12T09:29:25.397Z,1005.39
2018-05-12T09:30:25.467Z,1005.40
2018-05-12T09:31:25.531Z,1005.39
2018-05-12T09:32:25.598Z,1005.41
2018-05-12T09:33:25.665Z,1005.35
2018-05-12T09:34:25.753Z,1005.39
2018-05-12T09:35:25.799Z,1005.37
2018-05-12T09:36:25.866Z,1005.38
2018-05-12T09:37:25.934Z,1005.38
2018-05-12T09:38:25.999Z,1005.38
2018-05-12T09:39:26.065Z,1005.38
2018-05-12T09:40:26.132Z,1005.37
2018-05-12T09:41:26.201Z,1005.40
2018-05-12T09:42:26.370Z,1005.39
2018-05-12T09:43:26.335Z,1005.35
2018-05-12T09:44:26.402Z,1005.35
2018-05-12T09:45:26.473Z,1005.35
2018-05-12T09:46:26.536Z,1005.36
2018-05-12T09:47:26.602Z,1005.31
2018-05-12T09:48:26.670Z,1005.30
2018-05-12T09:49:26.738Z,1005.29
2018-05-12T09:50:26.806Z,1005.26
2018-05-12T09:51:26.871Z,1005.22
2018-05-12T09:52:26.995Z,1005.22
2018-05-12T09:53:27.007Z,1005.21
2018-05-12T09:54:27.073Z,1005.22
2018-05-12T09:55:27.141Z,1005.19
2018-05-12T09:56:27.209Z,1005.20
2018-05-12T09:57:27.277Z,1005.21
2018-05-12T09:58:27.343Z,1005.19
2018-05-12T09:59:27.493Z,1005.21
2018-05-12T10:00:27.479Z,1005.21
2018-05-12T10:01:27.546Z,1005.24
2018-05-12T10:02:27.614Z,1005.21
2018-05-12T10:03:27.775Z,1005.19
2018-05-12T10:04:27.749Z,1005.24
2018-05-12T10:05:27.817Z,1005.21
2018-05-12T10:06:27.884Z,1005.20
2018-05-12T10:07:27.953Z,1005.19
2018-05-12T10:08:28.020Z,1005.16
2018-05-12T10:09:28.089Z,1005.26
2018-05-12T10:10:28.156Z,1005.23
2018-05-12T10:11:28.227Z,1005.32
2018-05-12T10:12:28.293Z,1005.42
2018-05-12T10:13:28.362Z,1005.21
2018-05-12T10:14:28.432Z,1005.27
2018-05-12T10:15:28.559Z,1005.53
2018-05-12T10:16:28.571Z,1005.45
2018-05-12T10:17:28.640Z,1005.45
2018-05-12T10:18:28.708Z,1005.49
2018-05-12T10:19:28.785Z,1005.39
2018-05-12T10:20:28.848Z,1005.42
2018-05-12T10:21:28.918Z,1005.48
2018-05-12T10:22:28.987Z,1005.42
2018-05-12T10:23:29.057Z,1005.49
2018-05-12T10:24:30.182Z,1005.11
2018-05-12T10:25:29.198Z,1005.08
2018-05-12T10:26:29.271Z,1005.05
2018-05-12T10:27:29.340Z,1005.32
2018-05-12T10:28:29.411Z,1005.38
2018-05-12T10:29:29.482Z,1005.44
2018-05-12T10:30:29.552Z,1005.44
2018-05-12T10:31:29.622Z,1005.54
2018-05-12T10:32:29.693Z,1005.44
2018-05-12T10:33:29.764Z,1005.37
2018-05-12T10:34:29.834Z,1005.50
2018-05-12T10:35:29.906Z,1005.25
2018-05-12T10:36:29.977Z,1005.11
2018-05-12T10:37:30.048Z,1005.01
2018-05-12T10:38:30.120Z,1005.40
2018-05-12T10:39:30.190Z,1004.97
2018-05-12T10:40:30.262Z,1005.26
2018-05-12T10:41:30.333Z,1005.34
2018-05-12T10:42:30.405Z,1005.32
2018-05-12T10:43:30.477Z,1005.32
2018-05-12T10:44:30.552Z,1005.20
2018-05-12T10:45:30.657Z,1005.28
2018-05-12T10:46:30.691Z,1005.21
2018-05-12T10:47:30.767Z,1005.18
2018-05-12T10:48:30.834Z,1005.12
2018-05-12T10:49:30.907Z,1004.95
2018-05-12T10:50:30.977Z,1004.86
2018-05-12T10:51:31.049Z,1004.82
2018-05-12T10:52:31.121Z,1004.72
2018-05-12T10:53:31.193Z,1004.78
2018-05-12T10:54:31.263Z,1005.09
2018-05-12T10:55:31.335Z,1005.05
2018-05-12T10:56:31.410Z,1005.09
2018-05-12T10:57:31.478Z,1005.13
2018-05-12T10:58:31.548Z,1005.10
2018-05-12T10:59:31.621Z,1005.10
2018-05-12T11:00:31.692Z,1005.10
2018-05-12T11:01:31.764Z,1005.10
2018-05-12T11:02:31.835Z,1005.00
2018-05-12T11:03:31.910Z,1005.09
2018-05-12T11:04:31.978Z,1005.11
2018-05-12T11:05:32.051Z,1005.08
2018-05-12T11:06:32.122Z,1005.03
2018-05-12T11:07:32.195Z,1005.01
2018-05-12T11:08:32.267Z,1005.02
2018-05-12T11:09:32.342Z,1005.09
2018-05-12T11:10:32.412Z,1004.94
2018-05-12T11:11:32.487Z,1004.90
2018-05-12T11:12:32.558Z,1004.90
2018-05-12T11:13:32.631Z,1004.95
2018-05-12T11:14:32.703Z,1004.96
2018-05-12T11:15:32.780Z,1004.92
2018-05-12T11:16:32.848Z,1004.89
2018-05-12T11:17:32.922Z,1004.92
2018-05-12T11:18:32.994Z,1004.87
2018-05-12T11:19:33.068Z,1004.86
2018-05-12T11:20:33.142Z,1004.49
2018-05-12T11:21:33.284Z,1004.50
2018-05-12T11:22:33.286Z,1004.81
2018-05-12T11:23:33.363Z,1004.54
2018-05-12T11:24:33.434Z,1004.85
2018-05-12T11:25:33.507Z,1004.79
2018-05-12T11:26:33.584Z,1004.41
2018-05-12T11:27:33.653Z,1004.63
2018-05-12T11:28:33.725Z,1004.48
2018-05-12T11:29:33.798Z,1004.85
2018-05-12T11:30:33.869Z,1004.75
2018-05-12T11:31:33.946Z,1004.86
2018-05-12T11:32:34.015Z,1005.02
2018-05-12T11:33:34.089Z,1005.06
2018-05-12T11:34:34.161Z,1005.10
2018-05-12T11:35:34.235Z,1005.26
2018-05-12T11:36:34.306Z,1005.29
2018-05-12T11:37:34.381Z,1005.30
2018-05-12T11:38:34.450Z,1005.41
2018-05-12T11:39:34.526Z,1005.46
2018-05-12T11:40:34.597Z,1005.41
2018-05-12T11:41:34.672Z,1005.51
2018-05-12T11:42:34.745Z,1005.55
2018-05-12T11:43:34.819Z,1005.54
2018-05-12T11:44:34.926Z,1005.43
2018-05-12T11:45:34.966Z,1005.49
2018-05-12T11:46:35.041Z,1005.37
2018-05-12T11:47:35.114Z,1005.39
2018-05-12T11:48:35.190Z,1005.31
2018-05-12T11:49:35.266Z,1005.28
2018-05-12T11:50:35.340Z,1004.94
2018-05-12T11:51:35.414Z,1005.26
2018-05-12T11:52:35.492Z,1005.23
2018-05-12T11:53:35.568Z,1005.37
2018-05-12T11:54:35.642Z,1005.23
2018-05-12T11:55:35.718Z,1005.14
2018-05-12T11:56:35.792Z,1005.26
2018-05-12T11:57:36.068Z,1005.03
2018-05-12T11:58:35.943Z,1004.97
2018-05-12T11:59:36.019Z,1005.25
2018-05-12T12:00:36.096Z,1005.29
2018-05-12T12:01:36.171Z,1005.26
2018-05-12T12:02:36.325Z,1005.39
2018-05-12T12:03:36.350Z,1005.28
2018-05-12T12:04:36.396Z,1005.35
2018-05-12T12:05:36.473Z,1005.45
2018-05-12T12:06:36.628Z,1005.40